Time;durP1;ratioP1;P1;durP2;ratioP2;P2;SDS_P1;SDS_P2;PMS_P1;PMS_P2;Temp;Humidity;BMP_temperature;BMP_pressure;BME280_temperature;BME280_humidity;BME280_pressure;Samples;Min_cycle;Max_cycle;Signal;HPM_P1;HPM_P2
2023/06/09 00:01:25;;;;;;;;;;;13.50;99.90;;;;;;5067190;28;20279;-71
2023/06/09 00:03:52;;;;;;;;;;;13.50;99.90;;;;;;5069706;28;19920;-70
2023/06/09 00:06:22;;;;;;;;;;;13.50;99.90;;;;;;5066712;28;19920;-71
2023/06/09 00:08:49;;;;;;;;;;;13.40;99.90;;;;;;5077439;28;19924;-71
2023/06/09 00:11:14;;;;;;;;;;;13.40;99.90;;;;;;5069717;28;19932;-71
2023/06/09 00:13:40;;;;;;;;;;;13.40;99.90;;;;;;5069097;28;19920;-73
2023/06/09 00:16:05;;;;;;;;;;;13.40;99.90;;;;;;5069162;28;19929;-70
2023/06/09 00:18:32;;;;;;;;;;;13.40;99.90;;;;;;5085913;28;19927;-70
2023/06/09 00:20:59;;;;;;;;;;;13.30;99.90;;;;;;5078718;28;19921;-71
2023/06/09 00:23:28;;;;;;;;;;;13.30;99.90;;;;;;5061779;28;19920;-71
2023/06/09 00:25:53;;;;;;;;;;;13.30;99.90;;;;;;5051522;28;19920;-72
2023/06/09 00:28:19;;;;;;;;;;;13.30;99.90;;;;;;5070122;28;19990;-71
2023/06/09 00:30:45;;;;;;;;;;;13.30;99.90;;;;;;5084629;28;20275;-71
2023/06/09 00:33:10;;;;;;;;;;;13.30;99.90;;;;;;5068452;28;19960;-71
2023/06/09 00:35:36;;;;;;;;;;;13.30;99.90;;;;;;5069190;28;19967;-71
2023/06/09 00:38:02;;;;;;;;;;;13.30;99.90;;;;;;5069154;28;19971;-71
2023/06/09 00:40:27;;;;;;;;;;;13.30;99.90;;;;;;5069020;28;19920;-71
2023/06/09 00:42:53;;;;;;;;;;;13.30;99.90;;;;;;5082256;28;20385;-71
2023/06/09 00:45:18;;;;;;;;;;;13.30;99.90;;;;;;5078488;28;19927;-71
2023/06/09 00:47:44;;;;;;;;;;;13.30;99.90;;;;;;5069351;28;19928;-71
2023/06/09 00:50:11;;;;;;;;;;;13.30;99.90;;;;;;5069396;28;20390;-71
2023/06/09 00:52:37;;;;;;;;;;;13.30;99.90;;;;;;5069239;28;19947;-71
2023/06/09 00:55:03;;;;;;;;;;;13.30;99.90;;;;;;5069251;28;20394;-71
2023/06/09 00:57:29;;;;;;;;;;;13.30;99.90;;;;;;5068917;28;20435;-71
2023/06/09 00:59:56;;;;;;;;;;;13.30;99.90;;;;;;5067869;28;19927;-71
2023/06/09 01:02:23;;;;;;;;;;;13.30;99.90;;;;;;5067488;28;19927;-71
2023/06/09 01:04:54;;;;;;;;;;;13.20;99.90;;;;;;5051387;28;19921;-71
2023/06/09 01:07:40;;;;;;;;;;;13.20;99.90;;;;;;5077182;28;20015;-71
2023/06/09 01:10:14;;;;;;;;;;;13.20;99.90;;;;;;5067950;28;20298;-71
2023/06/09 01:12:47;;;;;;;;;;;13.20;99.90;;;;;;5070196;28;19983;-71
2023/06/09 01:15:18;;;;;;;;;;;13.20;99.90;;;;;;5063157;28;19920;-72
2023/06/09 01:17:48;;;;;;;;;;;13.20;99.90;;;;;;5068095;28;20333;-71
2023/06/09 01:20:17;;;;;;;;;;;13.10;99.90;;;;;;5069884;28;20355;-71
2023/06/09 01:22:57;;;;;;;;;;;13.10;99.90;;;;;;5071195;28;19920;-71
2023/06/09 01:25:34;;;;;;;;;;;13.10;99.90;;;;;;5054621;28;19920;-71
2023/06/09 01:28:02;;;;;;;;;;;13.10;99.90;;;;;;5071715;28;19924;-71
2023/06/09 01:30:29;;;;;;;;;;;13.10;99.90;;;;;;5072481;28;19943;-71
2023/06/09 01:32:56;;;;;;;;;;;13.10;99.90;;;;;;5070653;28;19977;-71
2023/06/09 01:35:22;;;;;;;;;;;13.10;99.90;;;;;;5067850;28;20822;-71
2023/06/09 01:37:48;;;;;;;;;;;13.10;99.90;;;;;;5088868;28;20007;-71
2023/06/09 01:40:13;;;;;;;;;;;13.10;99.90;;;;;;5077575;28;20337;-71
2023/06/09 01:42:39;;;;;;;;;;;13.10;99.90;;;;;;5071017;28;19927;-71
2023/06/09 01:45:05;;;;;;;;;;;13.00;99.90;;;;;;5071187;28;19998;-71
2023/06/09 01:47:30;;;;;;;;;;;13.00;99.90;;;;;;5070476;28;19920;-71
2023/06/09 01:49:59;;;;;;;;;;;13.00;99.90;;;;;;5072166;28;19965;-71
2023/06/09 01:52:29;;;;;;;;;;;13.00;99.90;;;;;;5071912;28;19924;-71
2023/06/09 01:54:58;;;;;;;;;;;13.00;99.90;;;;;;5078645;28;19985;-71
2023/06/09 01:57:30;;;;;;;;;;;13.00;99.90;;;;;;5082540;28;19928;-71
2023/06/09 01:59:59;;;;;;;;;;;12.90;99.90;;;;;;5067859;28;20433;-71
2023/06/09 02:02:25;;;;;;;;;;;12.90;99.90;;;;;;5071753;28;19927;-71
2023/06/09 02:04:52;;;;;;;;;;;12.90;99.90;;;;;;5070287;28;19957;-71
2023/06/09 02:07:19;;;;;;;;;;;12.90;99.90;;;;;;5071783;28;20006;-71
2023/06/09 02:09:45;;;;;;;;;;;12.90;99.90;;;;;;5063293;28;20340;-71
2023/06/09 02:12:10;;;;;;;;;;;12.90;99.90;;;;;;5071880;28;19920;-71
2023/06/09 02:14:36;;;;;;;;;;;12.90;99.90;;;;;;5073156;28;20286;-71
2023/06/09 02:17:02;;;;;;;;;;;12.90;99.90;;;;;;5063030;28;19928;-71
2023/06/09 02:19:28;;;;;;;;;;;12.90;99.90;;;;;;5061135;28;19927;-71
2023/06/09 02:21:54;;;;;;;;;;;12.90;99.90;;;;;;5065237;28;19953;-71
2023/06/09 02:24:20;;;;;;;;;;;12.80;99.90;;;;;;5064766;28;20297;-71
2023/06/09 02:26:48;;;;;;;;;;;12.90;99.90;;;;;;5066013;28;19920;-71
2023/06/09 02:29:15;;;;;;;;;;;12.80;99.90;;;;;;5073327;28;19931;-71
2023/06/09 02:31:40;;;;;;;;;;;12.80;99.90;;;;;;5071093;28;19995;-71
2023/06/09 02:34:06;;;;;;;;;;;12.80;99.90;;;;;;5066661;28;20004;-71
2023/06/09 02:36:31;;;;;;;;;;;12.90;99.90;;;;;;5065670;28;19920;-71
2023/06/09 02:38:57;;;;;;;;;;;12.80;99.90;;;;;;5069810;28;19920;-71
2023/06/09 02:41:23;;;;;;;;;;;12.80;99.90;;;;;;5071173;28;20984;-71
2023/06/09 02:43:48;;;;;;;;;;;12.90;99.90;;;;;;5061041;28;20071;-71
2023/06/09 02:46:17;;;;;;;;;;;12.80;99.90;;;;;;5071230;28;20018;-71
2023/06/09 02:48:42;;;;;;;;;;;12.80;99.90;;;;;;5066876;28;19974;-71
2023/06/09 02:51:08;;;;;;;;;;;12.80;99.90;;;;;;5054956;28;19928;-71
2023/06/09 02:53:33;;;;;;;;;;;12.80;99.90;;;;;;5057042;28;19967;-71
2023/06/09 02:55:59;;;;;;;;;;;12.80;99.90;;;;;;5064359;28;19920;-71
2023/06/09 02:58:24;;;;;;;;;;;12.80;99.90;;;;;;5042808;28;19920;-71
2023/06/09 03:00:50;;;;;;;;;;;12.80;99.90;;;;;;5073590;28;19963;-71
2023/06/09 03:03:17;;;;;;;;;;;12.80;99.90;;;;;;5066764;28;20405;-70
2023/06/09 03:05:44;;;;;;;;;;;12.80;99.90;;;;;;5073173;28;20383;-71
2023/06/09 03:08:09;;;;;;;;;;;12.80;99.90;;;;;;5063304;28;19920;-71
2023/06/09 03:10:35;;;;;;;;;;;12.80;99.90;;;;;;5067414;28;19940;-70
2023/06/09 03:13:01;;;;;;;;;;;12.80;99.90;;;;;;5075704;28;20262;-71
2023/06/09 03:15:26;;;;;;;;;;;12.80;99.90;;;;;;5068257;28;19920;-71
2023/06/09 03:17:52;;;;;;;;;;;12.80;99.90;;;;;;5069578;28;19920;-71
2023/06/09 03:20:19;;;;;;;;;;;12.80;99.90;;;;;;5069304;28;20134;-71
2023/06/09 03:22:45;;;;;;;;;;;12.70;99.90;;;;;;5062716;28;19968;-71
2023/06/09 03:25:12;;;;;;;;;;;12.80;99.90;;;;;;5061084;28;19927;-71
2023/06/09 03:27:37;;;;;;;;;;;12.70;99.90;;;;;;5049622;28;19920;-71
2023/06/09 03:30:04;;;;;;;;;;;12.70;99.90;;;;;;5061636;28;19920;-71
2023/06/09 03:32:30;;;;;;;;;;;12.70;99.90;;;;;;5067703;28;20295;-71
2023/06/09 03:34:55;;;;;;;;;;;12.70;99.90;;;;;;5068173;28;19927;-71
2023/06/09 03:37:21;;;;;;;;;;;12.70;99.90;;;;;;5080002;28;19966;-71
2023/06/09 03:39:46;;;;;;;;;;;12.70;99.90;;;;;;5077366;28;19927;-70
2023/06/09 03:42:11;;;;;;;;;;;12.80;99.90;;;;;;5083798;28;19935;-71
2023/06/09 03:44:37;;;;;;;;;;;12.80;99.90;;;;;;5078640;28;20234;-71
2023/06/09 03:47:03;;;;;;;;;;;12.70;99.90;;;;;;5068089;28;20413;-71
2023/06/09 03:49:28;;;;;;;;;;;12.80;99.90;;;;;;5069697;28;19931;-71
2023/06/09 03:51:54;;;;;;;;;;;12.80;99.90;;;;;;5069157;28;20069;-71
2023/06/09 03:54:19;;;;;;;;;;;12.80;99.90;;;;;;5086173;28;19959;-71
2023/06/09 03:56:45;;;;;;;;;;;12.80;99.90;;;;;;5078506;28;19924;-71
2023/06/09 03:59:10;;;;;;;;;;;12.80;99.90;;;;;;5069815;28;20003;-71
2023/06/09 04:01:36;;;;;;;;;;;12.80;99.90;;;;;;5051412;28;19931;-71
2023/06/09 04:04:02;;;;;;;;;;;12.80;99.90;;;;;;5075994;28;20306;-71
2023/06/09 04:06:28;;;;;;;;;;;12.80;99.90;;;;;;5067269;28;19931;-71
2023/06/09 04:08:53;;;;;;;;;;;12.80;99.90;;;;;;5068395;28;19920;-71
2023/06/09 04:11:19;;;;;;;;;;;12.80;99.90;;;;;;5067677;28;19920;-71
2023/06/09 04:13:47;;;;;;;;;;;12.80;99.90;;;;;;5075124;28;19920;-71
2023/06/09 04:16:12;;;;;;;;;;;12.90;99.90;;;;;;5079525;28;20383;-71
2023/06/09 04:18:38;;;;;;;;;;;12.90;99.90;;;;;;5069363;28;20043;-71
2023/06/09 04:21:03;;;;;;;;;;;12.90;99.90;;;;;;5068424;28;19926;-72
2023/06/09 04:23:29;;;;;;;;;;;13.00;99.90;;;;;;5077879;28;19930;-72
2023/06/09 04:25:55;;;;;;;;;;;13.00;99.90;;;;;;5069547;28;19983;-71
2023/06/09 04:28:21;;;;;;;;;;;13.00;99.90;;;;;;5072592;28;19924;-71
2023/06/09 04:30:47;;;;;;;;;;;13.00;99.90;;;;;;5080199;28;20631;-71
2023/06/09 04:33:16;;;;;;;;;;;13.00;99.90;;;;;;5068215;28;21141;-71
2023/06/09 04:35:43;;;;;;;;;;;13.00;99.90;;;;;;5067874;28;20298;-71
2023/06/09 04:38:09;;;;;;;;;;;13.10;99.90;;;;;;5069569;28;19921;-71
2023/06/09 04:40:37;;;;;;;;;;;13.10;99.90;;;;;;5083779;28;19928;-71
2023/06/09 04:43:02;;;;;;;;;;;13.20;99.90;;;;;;5058683;28;19921;-71
2023/06/09 04:45:28;;;;;;;;;;;13.20;99.90;;;;;;5069039;28;19924;-72
2023/06/09 04:48:00;;;;;;;;;;;13.20;99.90;;;;;;5062442;28;19920;-72
2023/06/09 04:50:26;;;;;;;;;;;13.20;99.90;;;;;;5072682;28;20515;-71
2023/06/09 04:52:51;;;;;;;;;;;13.30;99.90;;;;;;5072744;28;19920;-71
2023/06/09 04:55:17;;;;;;;;;;;13.30;99.90;;;;;;5070933;28;20374;-72
2023/06/09 04:57:43;;;;;;;;;;;13.40;99.90;;;;;;5073276;28;19921;-72
2023/06/09 05:00:18;;;;;;;;;;;13.50;99.90;;;;;;5071018;28;19925;-72
2023/06/09 05:02:44;;;;;;;;;;;13.50;99.90;;;;;;5074929;28;19920;-71
2023/06/09 05:05:10;;;;;;;;;;;13.50;99.90;;;;;;5072525;28;19920;-72
2023/06/09 05:07:38;;;;;;;;;;;13.60;99.90;;;;;;5072912;28;19969;-72
2023/06/09 05:10:05;;;;;;;;;;;13.60;99.90;;;;;;5072613;28;20240;-72
2023/06/09 05:12:30;;;;;;;;;;;13.60;99.90;;;;;;5071356;28;20383;-71
2023/06/09 05:14:56;;;;;;;;;;;13.70;99.90;;;;;;5072659;28;19926;-71
2023/06/09 05:17:21;;;;;;;;;;;13.70;99.90;;;;;;5072981;28;19999;-72
2023/06/09 05:19:47;;;;;;;;;;;13.80;99.90;;;;;;5073063;28;20004;-71
2023/06/09 05:22:12;;;;;;;;;;;13.80;99.90;;;;;;5080270;28;19964;-72
2023/06/09 05:24:38;;;;;;;;;;;13.80;99.90;;;;;;5067792;28;20550;-67
2023/06/09 05:27:05;;;;;;;;;;;13.90;99.90;;;;;;5079021;28;19924;-69
2023/06/09 05:29:30;;;;;;;;;;;13.90;99.90;;;;;;5069763;28;19939;-70
2023/06/09 05:31:56;;;;;;;;;;;14.00;99.90;;;;;;5070118;28;20577;-70
2023/06/09 05:34:21;;;;;;;;;;;14.00;99.90;;;;;;5071654;28;19935;-71
2023/06/09 05:36:47;;;;;;;;;;;14.10;99.90;;;;;;5054785;28;19920;-71
2023/06/09 05:39:12;;;;;;;;;;;14.10;99.90;;;;;;5083402;28;19924;-71
2023/06/09 05:41:38;;;;;;;;;;;14.20;99.90;;;;;;5080570;28;19945;-71
2023/06/09 05:44:04;;;;;;;;;;;14.20;99.90;;;;;;5072256;28;20405;-71
2023/06/09 05:46:29;;;;;;;;;;;14.30;99.90;;;;;;5069476;28;19920;-71
2023/06/09 05:48:55;;;;;;;;;;;14.30;99.90;;;;;;5071951;28;19924;-71
2023/06/09 05:51:20;;;;;;;;;;;14.40;99.90;;;;;;5071064;28;19921;-71
2023/06/09 05:53:46;;;;;;;;;;;14.40;99.90;;;;;;5072970;28;20352;-71
2023/06/09 05:56:14;;;;;;;;;;;14.50;99.90;;;;;;5085881;28;19920;-71
2023/06/09 05:58:39;;;;;;;;;;;14.60;99.90;;;;;;5072758;28;19931;-72
2023/06/09 06:01:05;;;;;;;;;;;14.60;99.90;;;;;;5085829;28;19923;-71
2023/06/09 06:03:33;;;;;;;;;;;14.70;99.90;;;;;;5078164;28;19927;-71
2023/06/09 06:05:58;;;;;;;;;;;14.70;99.90;;;;;;5077102;28;19947;-72
2023/06/09 06:08:24;;;;;;;;;;;14.80;99.90;;;;;;5053585;28;20358;-72
2023/06/09 06:10:50;;;;;;;;;;;14.90;99.90;;;;;;5071774;28;20018;-71
2023/06/09 06:13:15;;;;;;;;;;;14.90;99.90;;;;;;5071546;28;19959;-72
2023/06/09 06:15:41;;;;;;;;;;;15.00;99.90;;;;;;5059253;28;19986;-71
2023/06/09 06:18:07;;;;;;;;;;;15.10;99.90;;;;;;5071707;28;19924;-71
2023/06/09 06:20:32;;;;;;;;;;;15.10;99.90;;;;;;5071494;28;19920;-72
2023/06/09 06:22:58;;;;;;;;;;;15.20;99.90;;;;;;5067250;28;19989;-71
2023/06/09 06:25:23;;;;;;;;;;;15.30;99.90;;;;;;5071338;28;20431;-72
2023/06/09 06:27:49;;;;;;;;;;;15.40;99.90;;;;;;5078641;28;19920;-72
2023/06/09 06:30:15;;;;;;;;;;;15.40;99.90;;;;;;5078717;28;19966;-71
2023/06/09 06:32:50;;;;;;;;;;;15.50;99.90;;;;;;5073904;28;20385;-71
2023/06/09 06:35:23;;;;;;;;;;;15.60;99.90;;;;;;5087104;28;19924;-71
2023/06/09 06:37:48;;;;;;;;;;;15.60;99.90;;;;;;5058460;28;19920;-71
2023/06/09 06:40:14;;;;;;;;;;;15.70;99.90;;;;;;5071047;28;19924;-72
2023/06/09 06:42:40;;;;;;;;;;;15.70;99.90;;;;;;5083154;28;20283;-72
2023/06/09 06:45:05;;;;;;;;;;;15.80;99.90;;;;;;5068871;28;19978;-72
2023/06/09 06:47:31;;;;;;;;;;;15.90;99.90;;;;;;5089152;28;19965;-72
2023/06/09 06:49:56;;;;;;;;;;;15.90;99.90;;;;;;5075498;28;19967;-72
2023/06/09 06:52:22;;;;;;;;;;;16.00;99.90;;;;;;5082360;28;19920;-72
2023/06/09 06:54:47;;;;;;;;;;;16.10;99.90;;;;;;5069227;28;19928;-72
2023/06/09 06:57:14;;;;;;;;;;;16.20;99.90;;;;;;5053136;28;19924;-72
2023/06/09 06:59:39;;;;;;;;;;;16.30;99.90;;;;;;5069212;28;19931;-72
2023/06/09 07:02:05;;;;;;;;;;;16.30;99.90;;;;;;5070682;28;19924;-73
2023/06/09 07:04:31;;;;;;;;;;;16.40;99.90;;;;;;5070846;28;20298;-73
2023/06/09 07:06:56;;;;;;;;;;;16.50;99.90;;;;;;5069774;28;19921;-73
2023/06/09 07:09:22;;;;;;;;;;;16.60;99.90;;;;;;5069934;28;19927;-72
2023/06/09 07:11:48;;;;;;;;;;;16.60;99.90;;;;;;5069386;28;19921;-72
2023/06/09 07:14:13;;;;;;;;;;;16.70;99.90;;;;;;5079497;28;19927;-72
2023/06/09 07:16:39;;;;;;;;;;;16.80;99.90;;;;;;5084274;28;20310;-73
2023/06/09 07:19:05;;;;;;;;;;;16.90;99.90;;;;;;5085314;28;19924;-73
2023/06/09 07:21:32;;;;;;;;;;;17.00;99.90;;;;;;5084833;28;19924;-73
2023/06/09 07:23:57;;;;;;;;;;;17.10;99.90;;;;;;5074431;28;19927;-72
2023/06/09 07:26:23;;;;;;;;;;;17.10;99.90;;;;;;5076614;28;19920;-73
2023/06/09 07:28:48;;;;;;;;;;;17.20;99.90;;;;;;5075456;28;20727;-73
2023/06/09 07:31:15;;;;;;;;;;;17.30;99.90;;;;;;5069335;28;19920;-73
2023/06/09 07:33:41;;;;;;;;;;;17.30;99.90;;;;;;5068627;28;19927;-73
2023/06/09 07:36:10;;;;;;;;;;;17.40;99.90;;;;;;5069470;28;19924;-73
2023/06/09 07:38:37;;;;;;;;;;;17.50;99.90;;;;;;5069532;28;20653;-73
2023/06/09 07:41:03;;;;;;;;;;;17.60;99.90;;;;;;5068962;28;19959;-73
2023/06/09 07:43:28;;;;;;;;;;;17.60;99.90;;;;;;5069137;28;20465;-73
2023/06/09 07:45:54;;;;;;;;;;;17.70;99.90;;;;;;5069060;28;19924;-73
2023/06/09 07:48:20;;;;;;;;;;;17.80;99.90;;;;;;5068984;28;19920;-73
2023/06/09 07:50:45;;;;;;;;;;;17.90;99.90;;;;;;5081152;28;19921;-73
2023/06/09 07:53:11;;;;;;;;;;;17.90;99.90;;;;;;5069851;28;19956;-73
2023/06/09 07:55:37;;;;;;;;;;;18.00;99.90;;;;;;5088015;28;20001;-73
2023/06/09 07:58:02;;;;;;;;;;;18.10;99.90;;;;;;5086141;28;19997;-72
2023/06/09 08:00:28;;;;;;;;;;;18.20;99.90;;;;;;5074900;28;20297;-73
2023/06/09 08:03:02;;;;;;;;;;;18.30;99.90;;;;;;5074582;28;19950;-72
2023/06/09 08:05:29;;;;;;;;;;;18.40;99.90;;;;;;5069726;28;19924;-73
2023/06/09 08:07:55;;;;;;;;;;;18.50;99.90;;;;;;5068378;28;19920;-73
2023/06/09 08:10:21;;;;;;;;;;;18.60;99.90;;;;;;5069477;28;19928;-73
2023/06/09 08:12:46;;;;;;;;;;;18.70;99.90;;;;;;5069141;28;21075;-73
2023/06/09 08:15:12;;;;;;;;;;;18.80;99.90;;;;;;5079268;28;19920;-73
2023/06/09 08:17:37;;;;;;;;;;;18.90;99.90;;;;;;5069203;28;19920;-73
2023/06/09 08:20:06;;;;;;;;;;;19.00;99.90;;;;;;5069588;28;19920;-73
2023/06/09 08:22:31;;;;;;;;;;;19.10;99.90;;;;;;5049908;28;19921;-73
2023/06/09 08:24:57;;;;;;;;;;;19.30;99.90;;;;;;5068310;28;19921;-73
2023/06/09 08:27:23;;;;;;;;;;;19.40;99.90;;;;;;5068161;28;19928;-73
2023/06/09 08:29:49;;;;;;;;;;;19.50;99.90;;;;;;5068145;28;19928;-72
2023/06/09 08:32:15;;;;;;;;;;;19.60;99.90;;;;;;5069491;28;19931;-73
2023/06/09 08:34:41;;;;;;;;;;;19.70;99.90;;;;;;5068725;28;19921;-73
2023/06/09 08:37:07;;;;;;;;;;;19.70;99.90;;;;;;5069807;28;20317;-73
2023/06/09 08:39:33;;;;;;;;;;;19.80;99.90;;;;;;5068235;28;19920;-73
2023/06/09 08:42:06;;;;;;;;;;;19.90;99.90;;;;;;5069101;28;20354;-73
2023/06/09 08:44:34;;;;;;;;;;;20.00;99.90;;;;;;5068311;28;19974;-73
2023/06/09 08:47:00;;;;;;;;;;;20.10;99.90;;;;;;5068187;28;20258;-73
2023/06/09 08:49:26;;;;;;;;;;;20.30;99.90;;;;;;5069014;28;19921;-72
2023/06/09 08:51:52;;;;;;;;;;;20.30;99.90;;;;;;5069552;28;19929;-73
2023/06/09 08:54:18;;;;;;;;;;;20.40;99.90;;;;;;5069476;28;20398;-73
2023/06/09 08:56:44;;;;;;;;;;;20.60;99.90;;;;;;5050018;28;20058;-73
2023/06/09 08:59:11;;;;;;;;;;;20.70;99.90;;;;;;5069465;28;20400;-73
2023/06/09 09:01:38;;;;;;;;;;;20.80;99.90;;;;;;5068878;28;19927;-73
2023/06/09 09:04:03;;;;;;;;;;;21.00;99.90;;;;;;5078516;28;19920;-73
2023/06/09 09:06:29;;;;;;;;;;;21.10;99.90;;;;;;5080547;28;19927;-73
2023/06/09 09:08:54;;;;;;;;;;;21.30;99.90;;;;;;5069465;28;20382;-73
2023/06/09 09:11:20;;;;;;;;;;;21.40;99.90;;;;;;5069089;28;19955;-74
2023/06/09 09:13:49;;;;;;;;;;;21.50;99.90;;;;;;5059897;28;20390;-73
2023/06/09 09:16:15;;;;;;;;;;;21.60;99.90;;;;;;5066584;28;20386;-73
2023/06/09 09:18:46;;;;;;;;;;;21.70;99.90;;;;;;5068332;28;20007;-73
2023/06/09 09:21:19;;;;;;;;;;;21.80;99.90;;;;;;5071035;28;19927;-73
2023/06/09 09:23:53;;;;;;;;;;;21.90;99.90;;;;;;5085968;28;19927;-73
2023/06/09 09:26:26;;;;;;;;;;;22.10;99.90;;;;;;5067936;28;20007;-73
2023/06/09 09:28:55;;;;;;;;;;;22.20;99.90;;;;;;5067726;28;19927;-73
2023/06/09 09:31:21;;;;;;;;;;;22.40;99.90;;;;;;5055947;28;19927;-73
2023/06/09 09:33:48;;;;;;;;;;;22.70;99.90;;;;;;5072298;28;19920;-73
2023/06/09 09:36:14;;;;;;;9.98;3.70;;;23.00;99.90;;;;;;5083494;28;19927;-73
2023/06/09 09:38:43;;;;;;;8.70;3.95;;;23.30;99.90;;;;;;5068970;28;20431;-73
2023/06/09 09:41:13;;;;;;;11.00;3.67;;;23.60;99.90;;;;;;5066827;28;20402;-73
2023/06/09 09:43:40;;;;;;;8.82;3.80;;;23.80;99.90;;;;;;5071506;28;20855;-73
2023/06/09 09:46:07;;;;;;;7.30;3.58;;;24.10;99.90;;;;;;5081232;28;20063;-73
2023/06/09 09:48:33;;;;;;;;;;;24.30;99.90;;;;;;5071919;28;20044;-74
2023/06/09 09:50:58;;;;;;;7.72;3.65;;;24.50;99.90;;;;;;5072405;28;19924;-74
2023/06/09 09:53:25;;;;;;;;;;;24.70;99.90;;;;;;5072205;28;20506;-73
2023/06/09 09:55:55;;;;;;;;;;;25.00;99.90;;;;;;5072435;28;19921;-73
2023/06/09 09:58:27;;;;;;;9.88;3.75;;;25.20;99.90;;;;;;5070800;28;19943;-73
2023/06/09 10:00:57;;;;;;;8.07;3.45;;;25.40;99.90;;;;;;5067468;28;20412;-73
2023/06/09 10:03:24;;;;;;;8.25;3.25;;;25.60;99.90;;;;;;5053101;28;20048;-74
2023/06/09 10:05:49;;;;;;;7.68;3.25;;;25.70;99.90;;;;;;5070746;28;20400;-74
2023/06/09 10:08:42;;;;;;;7.55;3.15;;;25.90;99.90;;;;;;5079222;28;20408;-73
2023/06/09 10:11:08;;;;;;;;;;;26.10;99.00;;;;;;5069302;28;20319;-74
2023/06/09 10:13:34;;;;;;;6.55;3.17;;;26.20;97.50;;;;;;5070846;28;19931;-73
2023/06/09 10:16:00;;;;;;;7.68;3.15;;;26.30;97.20;;;;;;5070732;28;20538;-73
2023/06/09 10:18:26;;;;;;;6.10;2.85;;;26.50;97.20;;;;;;5069659;28;20044;-73
2023/06/09 10:20:53;;;;;;;6.53;3.15;;;26.70;97.00;;;;;;5069652;28;20411;-73
2023/06/09 10:23:19;;;;;;;;;;;26.90;94.50;;;;;;5071932;28;20075;-73
2023/06/09 10:25:50;;;;;;;8.32;2.67;;;26.90;91.40;;;;;;5071478;28;19968;-73
2023/06/09 10:28:17;;;;;;;7.68;3.20;;;26.90;93.40;;;;;;5058624;28;20943;-74
2023/06/09 10:30:50;;;;;;;10.27;3.08;;;26.90;91.20;;;;;;5069634;28;20415;-73
2023/06/09 10:33:21;;;;;;;;;;;27.00;92.20;;;;;;5053270;28;20064;-74
2023/06/09 10:35:49;;;;;;;7.40;2.55;;;27.30;91.50;;;;;;5065086;28;19924;-74
2023/06/09 10:38:28;;;;;;;5.32;2.65;;;27.40;90.60;;;;;;5079594;28;20487;-74
2023/06/09 10:41:02;;;;;;;6.07;2.77;;;27.50;90.20;;;;;;5068595;28;20958;-74
2023/06/09 10:44:07;;;;;;;6.28;2.83;;;27.60;88.40;;;;;;5069587;28;20428;-73
2023/06/09 10:46:47;;;;;;;7.68;3.30;;;27.70;88.80;;;;;;5064115;28;20051;-74
2023/06/09 10:49:35;;;;;;;6.22;2.90;;;27.90;85.10;;;;;;5066758;28;20404;-73
2023/06/09 10:52:01;;;;;;;6.80;2.90;;;27.90;85.70;;;;;;5068678;28;20755;-74
2023/06/09 10:54:28;;;;;;;6.55;3.20;;;28.00;84.50;;;;;;5069300;28;20395;-74
2023/06/09 10:56:55;;;;;;;;;;;28.10;84.00;;;;;;5070821;28;20092;-74
2023/06/09 10:59:24;;;;;;;9.40;2.95;;;28.20;83.20;;;;;;5078601;28;19926;-74
2023/06/09 11:02:05;;;;;;;6.30;3.05;;;28.20;84.20;;;;;;5057065;28;20573;-74
2023/06/09 11:04:41;;;;;;;7.17;2.90;;;28.50;80.00;;;;;;5068889;28;20450;-74
2023/06/09 11:07:13;;;;;;;;;;;28.60;81.50;;;;;;5069760;28;20506;-74
2023/06/09 11:09:39;;;;;;;;;;;28.70;80.60;;;;;;5070789;28;19962;-73
2023/06/09 11:12:06;;;;;;;6.68;2.80;;;28.90;80.60;;;;;;5070578;28;19968;-72
2023/06/09 11:14:56;;;;;;;7.85;3.35;;;29.10;81.30;;;;;;5068746;28;20407;-72
2023/06/09 11:17:25;;;;;;;;;;;29.20;80.80;;;;;;5046280;28;20076;-72
2023/06/09 11:20:11;;;;;;;;;;;29.30;80.20;;;;;;5070171;28;20357;-72
2023/06/09 11:22:54;;;;;;;;;;;29.40;78.50;;;;;;5068280;28;19974;-72
2023/06/09 11:25:19;;;;;;;;;;;29.60;79.60;;;;;;5062142;28;20382;-72
2023/06/09 11:28:09;;;;;;;4.68;2.47;;;29.80;78.10;;;;;;5069480;28;19920;-74
2023/06/09 11:30:55;;;;;;;6.00;2.97;;;29.90;78.00;;;;;;5067916;28;20036;-74
2023/06/09 11:33:44;;;;;;;6.10;2.78;;;30.10;75.10;;;;;;5080245;28;20054;-74
2023/06/09 11:36:12;;;;;;;;;;;30.20;76.70;;;;;;5064251;28;20060;-74
2023/06/09 11:38:38;;;;;;;;;;;30.40;76.70;;;;;;5072646;28;20374;-72
2023/06/09 11:41:07;;;;;;;;;;;30.50;75.40;;;;;;5070263;28;20338;-71
2023/06/09 11:43:33;;;;;;;7.05;3.50;;;30.50;73.00;;;;;;5069484;28;19928;-72
2023/06/09 11:46:03;;;;;;;7.45;3.10;;;30.50;71.50;;;;;;5075655;28;20040;-72
2023/06/09 11:48:29;;;;;;;7.13;2.95;;;30.50;70.80;;;;;;5070815;28;20407;-72
2023/06/09 11:50:55;;;;;;;5.75;2.40;;;30.50;70.60;;;;;;5069544;28;20119;-72
2023/06/09 11:53:23;;;;;;;6.80;2.88;;;30.40;72.00;;;;;;5068369;28;20416;-72
2023/06/09 11:56:03;;;;;;;7.32;3.15;;;30.60;70.50;;;;;;5066981;28;20994;-73
2023/06/09 11:58:29;;;;;;;;;;;30.70;71.90;;;;;;5069225;28;20382;-72
2023/06/09 12:00:56;;;;;;;7.30;3.03;;;30.90;67.90;;;;;;5085529;28;20010;-72
2023/06/09 12:03:21;;;;;;;;;;;30.90;70.20;;;;;;5067593;28;20050;-72
2023/06/09 12:05:51;;;;;;;7.28;2.97;;;31.00;68.30;;;;;;5069798;28;19966;-72
2023/06/09 12:08:18;;;;;;;7.22;2.65;;;31.00;70.00;;;;;;5068482;28;20051;-72
2023/06/09 12:10:43;;;;;;;;;;;31.10;74.00;;;;;;5084243;28;20043;-72
2023/06/09 12:13:09;;;;;;;;;;;31.30;75.40;;;;;;5069130;28;21231;-72
2023/06/09 12:15:35;;;;;;;13.13;3.60;;;31.40;76.40;;;;;;5069298;28;19920;-73
2023/06/09 12:18:03;;;;;;;6.82;3.03;;;31.40;77.00;;;;;;5068936;28;20072;-72
2023/06/09 12:20:33;;;;;;;9.88;3.05;;;31.40;78.40;;;;;;5066042;28;20047;-72
2023/06/09 12:23:02;;;;;;;7.40;3.20;;;31.50;77.70;;;;;;5067448;28;20464;-72
2023/06/09 12:25:36;;;;;;;8.95;3.55;;;31.50;78.70;;;;;;5067499;28;20094;-72
2023/06/09 12:28:14;;;;;;;;;;;31.40;77.60;;;;;;5067255;28;20036;-73
2023/06/09 12:30:44;;;;;;;8.32;2.95;;;31.40;78.40;;;;;;5077038;28;20401;-72
2023/06/09 12:33:13;;;;;;;7.38;2.80;;;31.40;79.40;;;;;;5077294;28;20055;-73
2023/06/09 12:35:43;;;;;;;6.95;3.30;;;31.40;79.00;;;;;;5070542;28;21112;-73
2023/06/09 12:38:09;;;;;;;;;;;31.20;79.30;;;;;;5079671;28;20518;-72
2023/06/09 12:40:46;;;;;;;10.50;3.05;;;31.00;79.70;;;;;;5070995;28;19920;-72
2023/06/09 12:43:13;;;;;;;6.60;2.85;;;30.90;80.20;;;;;;5050736;28;20124;-72
2023/06/09 12:45:41;;;;;;;8.52;2.97;;;30.80;79.80;;;;;;5068662;28;20060;-72
2023/06/09 12:48:07;;;;;;;;;;;30.80;81.00;;;;;;5068191;28;20474;-72
2023/06/09 12:50:34;;;;;;;6.97;3.22;;;30.80;80.80;;;;;;5073039;28;19969;-73
2023/06/09 12:52:59;;;;;;;8.45;3.72;;;30.80;80.90;;;;;;5074119;28;20406;-72
2023/06/09 12:55:25;;;;;;;8.48;3.10;;;30.80;80.90;;;;;;5068752;28;20491;-72
2023/06/09 12:57:50;;;;;;;9.57;3.67;;;30.80;81.40;;;;;;5068472;28;20049;-73
2023/06/09 13:00:16;;;;;;;9.30;3.63;;;30.80;80.90;;;;;;5069643;28;20456;-72
2023/06/09 13:02:43;;;;;;;8.43;3.70;;;30.80;80.30;;;;;;5079900;28;20459;-73
2023/06/09 13:05:09;;;;;;;;;;;30.80;80.90;;;;;;5066774;28;20056;-73
2023/06/09 13:07:35;;;;;;;8.38;3.20;;;30.80;80.80;;;;;;5071548;28;20341;-72
2023/06/09 13:10:01;;;;;;;7.72;3.47;;;30.90;81.20;;;;;;5069892;28;20048;-72
2023/06/09 13:12:27;;;;;;;6.65;3.42;;;31.00;80.90;;;;;;5072437;28;20044;-73
2023/06/09 13:14:52;;;;;;;7.80;3.80;;;31.10;80.60;;;;;;5072216;28;20044;-72
2023/06/09 13:17:18;;;;;;;;;;;31.00;80.60;;;;;;5075093;28;20072;-72
2023/06/09 13:19:43;;;;;;;9.82;3.45;;;31.10;81.10;;;;;;5057156;28;20290;-72
2023/06/09 13:22:09;;;;;;;11.20;4.43;;;31.30;80.60;;;;;;5083017;28;20044;-73
2023/06/09 13:24:36;;;;;;;10.20;3.53;;;31.50;80.50;;;;;;5072388;28;20037;-72
2023/06/09 13:27:02;;;;;;;7.38;2.67;;;31.50;79.70;;;;;;5069942;28;20041;-72
2023/06/09 13:29:28;;;;;;;6.85;2.80;;;31.50;80.60;;;;;;5069773;28;20075;-72
2023/06/09 13:31:54;;;;;;;10.07;3.30;;;31.70;80.30;;;;;;5071239;28;20076;-72
2023/06/09 13:34:20;;;;;;;7.95;3.25;;;31.70;79.90;;;;;;5081868;28;20408;-73
2023/06/09 13:36:45;;;;;;;7.87;3.50;;;31.80;79.30;;;;;;5070136;28;20403;-73
2023/06/09 13:39:11;;;;;;;8.40;3.40;;;31.80;78.90;;;;;;5069314;28;20513;-72
2023/06/09 13:41:37;;;;;;;8.63;3.67;;;31.90;79.60;;;;;;5068958;28;20901;-72
2023/06/09 13:44:05;;;;;;;8.03;3.37;;;32.00;78.70;;;;;;5080910;28;20397;-72
2023/06/09 13:46:31;;;;;;;7.38;3.20;;;32.10;78.70;;;;;;5076614;28;20399;-73
2023/06/09 13:48:57;;;;;;;;;;;32.10;78.30;;;;;;5082645;28;20429;-72
2023/06/09 13:51:22;;;;;;;;;;;32.20;77.10;;;;;;5086637;28;19969;-73
2023/06/09 13:53:48;;;;;;;;;;;32.20;77.80;;;;;;5054302;28;19927;-72
2023/06/09 13:56:16;;;;;;;;;;;32.30;76.90;;;;;;5078609;28;19931;-72